Airfield :
LOGIN :

Register | Disclaimer

   EN    FR    IT 

 










Legend :    VFR   Marginal VFR   IFR   Intensive IFR   Very Intensive IFR
Visi :
Ceiling :
>= 8 km
>= 3000ft
5 to 8 km
1000 to 3000 ft
1500m to 5 km
500 to 1000 ft
800 to 1500m
200 to 500 ft
< 800m
< 200 ft
Symbols :   Thunderstorms  Fog  Heavy snow  Heavy precipitations  Wind > 20 kt
SIGMETs :     Misc.  Thunderstorms  Icing  Turbulence  Mountain Waves  Volcanic Ashes






- Airport Elevation : 65 ft
- IATA code : PIK


EGPK - Glasgow Prestwick

CURRENT METAR :
  • 010550Z 28010KT 9999 FEW015 SCT025 07/03 Q1025

EXPIRED METARs :
  • 010450Z 28008KT 9999 SCT025 07/03 Q1026
  • 010350Z 28009KT 9999 SCT046 07/03 Q1027
  • 010250Z 30007KT 9999 SCT016 07/04 Q1027

TAF TAF EGPK
Valid from the 01 at 06:00 until the 02 at 06:00 UTC


010456Z 0106/0206 27007KT 9999 SCT025
PROB30
TEMPO 0106/0110 6000 SHRA
TEMPO 0115/0120 27015G25KT 6000 -RADZ BKN012
PROB30
TEMPO 0116/0119 4000 RADZ BKN007
TEMPO 0203/0206 26015G25KT 6000 RA BKN010



MET'MAP, your aeronautical weather chart ! - Copyright ORBIFLY December 2007 - Disclaimer

ORBIFLY MET'MAP TEAM :

Programming & Development : Alexandra Zaïnal
Concept & original design : Baudouin d'Aumeries
Assistance for programming : Marc-Olivier Méhu
Technical & hardware support : Manuel Goepfert

Contact : metmap@orbifly.com




SOURCES & CREDITS :

   NOAA